createdAt,value
2017-11-18T00:00:45.803Z,0
2017-11-18T00:01:45.813Z,0
2017-11-18T00:02:45.927Z,0
2017-11-18T00:03:45.325Z,0
2017-11-18T00:04:45.608Z,0
2017-11-18T00:05:45.883Z,0
2017-11-18T00:06:45.377Z,0
2017-11-18T00:07:45.960Z,0
2017-11-18T00:08:45.700Z,0
2017-11-18T00:09:45.683Z,0
2017-11-18T00:10:45.983Z,0
2017-11-18T00:11:45.748Z,0
2017-11-18T00:12:45.997Z,0
2017-11-18T00:13:45.754Z,0
2017-11-18T00:14:46.020Z,0
2017-11-18T00:15:46.045Z,0
2017-11-18T00:16:46.055Z,0
2017-11-18T00:17:45.806Z,0
2017-11-18T00:18:45.573Z,0
2017-11-18T00:19:46.102Z,0
2017-11-18T00:20:46.106Z,0
2017-11-18T00:21:45.877Z,0
2017-11-18T00:22:46.199Z,0
2017-11-18T00:23:46.384Z,0
2017-11-18T00:24:46.177Z,0
2017-11-18T00:25:46.194Z,0
2017-11-18T00:26:45.949Z,0
2017-11-18T00:27:45.965Z,0
2017-11-18T00:28:45.461Z,0
2017-11-18T00:29:45.999Z,0
2017-11-18T00:30:46.014Z,0
2017-11-18T00:31:46.297Z,0
2017-11-18T00:32:46.042Z,0
2017-11-18T00:33:46.316Z,0
2017-11-18T00:34:46.070Z,0
2017-11-18T00:35:46.086Z,0
2017-11-18T00:36:46.107Z,0
2017-11-18T00:37:46.173Z,0
2017-11-18T00:38:46.134Z,0
2017-11-18T00:39:46.409Z,0
2017-11-18T00:40:46.425Z,0
2017-11-18T00:41:46.434Z,0
2017-11-18T00:42:45.959Z,0
2017-11-18T00:43:46.221Z,0
2017-11-18T00:44:46.483Z,0
2017-11-18T00:45:46.243Z,0
2017-11-18T00:46:46.528Z,0
2017-11-18T00:47:46.272Z,0
2017-11-18T00:48:46.305Z,0
2017-11-18T00:49:46.557Z,0
2017-11-18T00:50:46.324Z,0
2017-11-18T00:51:46.342Z,0
2017-11-18T00:52:46.400Z,0
2017-11-18T00:53:46.617Z,0
2017-11-18T00:54:46.645Z,0
2017-11-18T00:55:46.138Z,0
2017-11-18T00:56:46.699Z,0
2017-11-18T00:57:46.433Z,0
2017-11-18T00:58:46.460Z,0
2017-11-18T00:59:46.459Z,0
2017-11-18T01:00:46.727Z,0
2017-11-18T01:01:46.745Z,0
2017-11-18T01:02:46.761Z,0
2017-11-18T01:03:46.522Z,0
2017-11-18T01:04:46.534Z,0
2017-11-18T01:05:46.819Z,0
2017-11-18T01:06:46.574Z,0
2017-11-18T01:07:46.375Z,0
2017-11-18T01:08:46.884Z,0
2017-11-18T01:09:46.615Z,0
2017-11-18T01:10:46.913Z,0
2017-11-18T01:11:46.646Z,0
2017-11-18T01:12:46.915Z,0
2017-11-18T01:13:46.931Z,0
2017-11-18T01:14:46.951Z,0
2017-11-18T01:15:46.969Z,0
2017-11-18T01:16:46.746Z,0
2017-11-18T01:17:47.005Z,0
2017-11-18T01:18:47.008Z,0
2017-11-18T01:19:46.768Z,0
2017-11-18T01:20:46.781Z,0
2017-11-18T01:21:47.088Z,0
2017-11-18T01:22:46.916Z,0
2017-11-18T01:23:46.834Z,0
2017-11-18T01:24:46.588Z,0
2017-11-18T01:25:47.123Z,0
2017-11-18T01:26:47.128Z,0
2017-11-18T01:27:46.633Z,0
2017-11-18T01:28:46.935Z,0
2017-11-18T01:29:47.175Z,0
2017-11-18T01:30:47.199Z,0
2017-11-18T01:31:46.973Z,0
2017-11-18T01:32:46.983Z,0
2017-11-18T01:33:46.989Z,0
2017-11-18T01:34:46.996Z,0
2017-11-18T01:35:46.753Z,0
2017-11-18T01:36:47.036Z,0
2017-11-18T01:37:47.088Z,0
2017-11-18T01:38:47.098Z,0
2017-11-18T01:39:47.339Z,0
2017-11-18T01:40:47.354Z,0
2017-11-18T01:41:47.360Z,0
2017-11-18T01:42:47.121Z,0
2017-11-18T01:43:47.138Z,0
2017-11-18T01:44:47.412Z,0
2017-11-18T01:45:47.433Z,0
2017-11-18T01:46:47.445Z,0
2017-11-18T01:47:47.471Z,0
2017-11-18T01:48:46.956Z,0
2017-11-18T01:49:47.504Z,0
2017-11-18T01:50:47.256Z,0
2017-11-18T01:51:47.534Z,0
2017-11-18T01:52:47.277Z,0
2017-11-18T01:53:47.304Z,0
2017-11-18T01:54:47.568Z,0
2017-11-18T01:55:47.583Z,0
2017-11-18T01:56:47.391Z,0
2017-11-18T01:57:47.107Z,0
2017-11-18T01:58:47.619Z,0
2017-11-18T01:59:47.380Z,0
2017-11-18T02:00:47.399Z,0
2017-11-18T02:01:47.427Z,0
2017-11-18T02:02:47.436Z,0
2017-11-18T02:03:47.459Z,0
2017-11-18T02:04:47.730Z,0
2017-11-18T02:05:47.232Z,0
2017-11-18T02:06:47.492Z,0
2017-11-18T02:07:47.872Z,0
2017-11-18T02:08:47.796Z,0
2017-11-18T02:09:47.284Z,0
2017-11-18T02:10:47.812Z,0
2017-11-18T02:11:47.891Z,0
2017-11-18T02:12:47.840Z,0
2017-11-18T02:13:47.863Z,0
2017-11-18T02:14:47.870Z,0
2017-11-18T02:15:47.643Z,0
2017-11-18T02:16:47.650Z,0
2017-11-18T02:17:47.659Z,0
2017-11-18T02:18:47.946Z,0
2017-11-18T02:19:47.697Z,0
2017-11-18T02:20:47.445Z,0
2017-11-18T02:21:47.726Z,0
2017-11-18T02:22:48.001Z,0
2017-11-18T02:23:48.038Z,0
2017-11-18T02:24:48.035Z,0
2017-11-18T02:25:47.525Z,0
2017-11-18T02:26:48.080Z,0
2017-11-18T02:27:47.868Z,0
2017-11-18T02:28:48.101Z,0
2017-11-18T02:29:48.138Z,0
2017-11-18T02:30:48.154Z,0
2017-11-18T02:31:47.633Z,0
2017-11-18T02:32:48.182Z,0
2017-11-18T02:33:47.953Z,0
2017-11-18T02:34:48.191Z,0
2017-11-18T02:35:48.213Z,0
2017-11-18T02:36:47.959Z,0
2017-11-18T02:37:47.990Z,0
2017-11-18T02:38:47.998Z,0
2017-11-18T02:39:48.024Z,0
2017-11-18T02:40:48.018Z,0
2017-11-18T02:41:48.049Z,0
2017-11-18T02:42:48.307Z,0
2017-11-18T02:43:48.342Z,0
2017-11-18T02:44:48.074Z,0
2017-11-18T02:45:48.398Z,0
2017-11-18T02:46:48.395Z,0
2017-11-18T02:47:48.385Z,0
2017-11-18T02:48:48.139Z,0
2017-11-18T02:49:48.154Z,0
2017-11-18T02:50:47.908Z,0
2017-11-18T02:51:48.451Z,0
2017-11-18T02:52:48.475Z,0
2017-11-18T02:53:47.953Z,0
2017-11-18T02:54:48.497Z,0
2017-11-18T02:55:48.237Z,0
2017-11-18T02:56:48.266Z,0
2017-11-18T02:57:48.270Z,0
2017-11-18T02:58:48.548Z,0
2017-11-18T02:59:48.554Z,0
2017-11-18T03:00:48.593Z,0
2017-11-18T03:01:48.329Z,0
2017-11-18T03:02:48.617Z,0
2017-11-18T03:03:48.615Z,0
2017-11-18T03:04:48.384Z,0
2017-11-18T03:05:48.649Z,0
2017-11-18T03:06:48.668Z,0
2017-11-18T03:07:48.422Z,0
2017-11-18T03:08:48.708Z,0
2017-11-18T03:09:48.712Z,0
2017-11-18T03:10:48.723Z,0
2017-11-18T03:11:48.483Z,0
2017-11-18T03:12:48.813Z,0
2017-11-18T03:13:48.509Z,0
2017-11-18T03:14:48.641Z,0
2017-11-18T03:15:48.797Z,0
2017-11-18T03:16:48.812Z,0
2017-11-18T03:17:48.831Z,0
2017-11-18T03:18:48.589Z,0
2017-11-18T03:19:48.915Z,0
2017-11-18T03:20:48.641Z,0
2017-11-18T03:21:48.115Z,0
2017-11-18T03:22:48.661Z,0
2017-11-18T03:23:48.918Z,0
2017-11-18T03:24:48.933Z,0
2017-11-18T03:25:48.437Z,0
2017-11-18T03:26:48.713Z,0
2017-11-18T03:27:48.980Z,0
2017-11-18T03:28:48.478Z,0
2017-11-18T03:29:48.753Z,0
2017-11-18T03:30:48.793Z,0
2017-11-18T03:31:49.050Z,0
2017-11-18T03:32:49.071Z,0
2017-11-18T03:33:49.281Z,0
2017-11-18T03:34:48.829Z,0
2017-11-18T03:35:49.112Z,0
2017-11-18T03:36:48.909Z,0
2017-11-18T03:37:48.616Z,0
2017-11-18T03:38:48.887Z,0
2017-11-18T03:39:49.172Z,0
2017-11-18T03:40:49.192Z,0
2017-11-18T03:41:48.932Z,0
2017-11-18T03:42:49.214Z,0
2017-11-18T03:43:49.222Z,0
2017-11-18T03:44:49.242Z,0
2017-11-18T03:45:49.268Z,0
2017-11-18T03:46:49.277Z,0
2017-11-18T03:47:49.025Z,0
2017-11-18T03:48:48.776Z,0
2017-11-18T03:49:48.795Z,0
2017-11-18T03:50:48.807Z,0
2017-11-18T03:51:49.084Z,0
2017-11-18T03:52:49.556Z,0
2017-11-18T03:53:49.382Z,0
2017-11-18T03:54:49.131Z,0
2017-11-18T03:55:49.446Z,0
2017-11-18T03:56:49.162Z,0
2017-11-18T03:57:49.176Z,0
2017-11-18T03:58:49.193Z,0
2017-11-18T03:59:49.206Z,0
2017-11-18T04:00:49.520Z,0
2017-11-18T04:01:49.523Z,0
2017-11-18T04:02:49.513Z,0
2017-11-18T04:03:49.009Z,0
2017-11-18T04:04:49.027Z,0
2017-11-18T04:05:49.317Z,0
2017-11-18T04:06:49.311Z,0
2017-11-18T04:07:49.336Z,0
2017-11-18T04:08:49.341Z,0
2017-11-18T04:09:49.413Z,0
2017-11-18T04:10:49.645Z,0
2017-11-18T04:11:49.388Z,0
2017-11-18T04:12:49.435Z,0
2017-11-18T04:13:49.677Z,0
2017-11-18T04:14:49.178Z,0
2017-11-18T04:15:49.709Z,0
2017-11-18T04:16:49.466Z,0
2017-11-18T04:17:49.743Z,0
2017-11-18T04:18:49.236Z,0
2017-11-18T04:19:49.512Z,0
2017-11-18T04:20:49.521Z,0
2017-11-18T04:21:49.808Z,0
2017-11-18T04:22:49.820Z,0
2017-11-18T04:23:49.566Z,0
2017-11-18T04:24:49.894Z,0
2017-11-18T04:25:49.856Z,0
2017-11-18T04:26:49.627Z,0
2017-11-18T04:27:49.627Z,0
2017-11-18T04:28:49.911Z,0
2017-11-18T04:29:49.923Z,0
2017-11-18T04:30:49.456Z,0
2017-11-18T04:31:49.940Z,0
2017-11-18T04:32:49.969Z,0
2017-11-18T04:33:49.980Z,0
2017-11-18T04:34:49.481Z,0
2017-11-18T04:35:49.746Z,0
2017-11-18T04:36:50.033Z,0
2017-11-18T04:37:49.795Z,0
2017-11-18T04:38:49.530Z,0
2017-11-18T04:39:50.118Z,0
2017-11-18T04:40:49.831Z,0
2017-11-18T04:41:49.837Z,0
2017-11-18T04:42:50.137Z,0
2017-11-18T04:43:49.615Z,0
2017-11-18T04:44:50.153Z,0
2017-11-18T04:45:49.895Z,0
2017-11-18T04:46:49.911Z,0
2017-11-18T04:47:50.194Z,0
2017-11-18T04:48:50.208Z,0
2017-11-18T04:49:49.958Z,0
2017-11-18T04:50:49.968Z,0
2017-11-18T04:51:50.255Z,0
2017-11-18T04:52:50.002Z,0
2017-11-18T04:53:50.285Z,0
2017-11-18T04:54:50.333Z,0
2017-11-18T04:55:50.313Z,0
2017-11-18T04:56:50.332Z,0
2017-11-18T04:57:50.073Z,0
2017-11-18T04:58:49.831Z,0
2017-11-18T04:59:50.109Z,0
2017-11-18T05:00:50.120Z,0
2017-11-18T05:01:50.138Z,0
2017-11-18T05:02:50.157Z,0
2017-11-18T05:03:50.443Z,0
2017-11-18T05:04:50.181Z,0
2017-11-18T05:05:50.200Z,0
2017-11-18T05:06:50.218Z,0
2017-11-18T05:07:49.708Z,0
2017-11-18T05:08:49.984Z,0
2017-11-18T05:09:50.259Z,0
2017-11-18T05:10:50.267Z,0
2017-11-18T05:11:50.283Z,0
2017-11-18T05:12:50.040Z,0
2017-11-18T05:13:50.308Z,0
2017-11-18T05:14:50.324Z,0
2017-11-18T05:15:50.598Z,0
2017-11-18T05:16:50.348Z,0
2017-11-18T05:17:50.625Z,0
2017-11-18T05:18:50.380Z,0
2017-11-18T05:19:50.397Z,0
2017-11-18T05:20:50.413Z,0
2017-11-18T05:21:50.433Z,0
2017-11-18T05:22:50.437Z,0
2017-11-18T05:23:50.732Z,0
2017-11-18T05:24:50.735Z,0
2017-11-18T05:25:50.743Z,0
2017-11-18T05:26:50.760Z,0
2017-11-18T05:27:50.815Z,0
2017-11-18T05:28:50.266Z,0
2017-11-18T05:29:50.797Z,0
2017-11-18T05:30:50.294Z,0
2017-11-18T05:31:50.316Z,0
2017-11-18T05:32:50.326Z,0
2017-11-18T05:33:50.601Z,0
2017-11-18T05:34:50.868Z,0
2017-11-18T05:35:50.641Z,0
2017-11-18T05:36:50.378Z,0
2017-11-18T05:37:50.395Z,0
2017-11-18T05:38:50.675Z,0
2017-11-18T05:39:50.942Z,0
2017-11-18T05:40:50.702Z,0
2017-11-18T05:41:50.980Z,0
2017-11-18T05:42:50.480Z,0
2017-11-18T05:43:51.003Z,0
2017-11-18T05:44:51.065Z,0
2017-11-18T05:45:51.022Z,0
2017-11-18T05:46:50.789Z,0
2017-11-18T05:47:51.124Z,0
2017-11-18T05:48:51.077Z,0
2017-11-18T05:49:50.565Z,0
2017-11-18T05:50:50.848Z,0
2017-11-18T05:51:50.854Z,0
2017-11-18T05:52:50.872Z,0
2017-11-18T05:53:50.634Z,0
2017-11-18T05:54:50.905Z,0
2017-11-18T05:55:50.655Z,0
2017-11-18T05:56:50.927Z,0
2017-11-18T05:57:51.199Z,0
2017-11-18T05:58:50.962Z,0
2017-11-18T05:59:51.226Z,0
2017-11-18T06:00:51.291Z,4
2017-11-18T06:01:50.484Z,4
2017-11-18T06:02:51.327Z,0
2017-11-18T06:03:51.030Z,0
2017-11-18T06:04:51.297Z,4
2017-11-18T06:05:51.052Z,4
2017-11-18T06:06:51.088Z,4
2017-11-18T06:07:51.088Z,8
2017-11-18T06:08:51.357Z,4
2017-11-18T06:09:51.112Z,4
2017-11-18T06:10:51.130Z,12
2017-11-18T06:11:51.138Z,12
2017-11-18T06:12:51.414Z,12
2017-11-18T06:13:50.920Z,12
2017-11-18T06:14:51.223Z,16
2017-11-18T06:15:51.245Z,20
2017-11-18T06:16:51.476Z,20
2017-11-18T06:17:51.491Z,24
2017-11-18T06:18:51.259Z,24
2017-11-18T06:19:51.257Z,28
2017-11-18T06:20:51.544Z,28
2017-11-18T06:21:51.539Z,32
2017-11-18T06:22:51.085Z,36
2017-11-18T06:23:51.063Z,40
2017-11-18T06:24:51.587Z,44
2017-11-18T06:25:51.346Z,48
2017-11-18T06:26:51.100Z,56
2017-11-18T06:27:51.629Z,56
2017-11-18T06:28:51.398Z,64
2017-11-18T06:29:51.666Z,68
2017-11-18T06:30:51.464Z,72
2017-11-18T06:31:51.446Z,76
2017-11-18T06:32:51.466Z,84
2017-11-18T06:33:51.725Z,92
2017-11-18T06:34:51.472Z,92
2017-11-18T06:35:51.748Z,92
2017-11-18T06:36:50.984Z,100
2017-11-18T06:37:51.718Z,104
2017-11-18T06:38:51.790Z,120
2017-11-18T06:39:51.806Z,128
2017-11-18T06:40:51.571Z,132
2017-11-18T06:41:51.567Z,128
2017-11-18T06:42:51.597Z,132
2017-11-18T06:43:51.865Z,140
2017-11-18T06:44:51.870Z,152
2017-11-18T06:45:51.955Z,156
2017-11-18T06:46:51.645Z,160
2017-11-18T06:47:51.657Z,164
2017-11-18T06:48:51.430Z,180
2017-11-18T06:49:51.943Z,180
2017-11-18T06:50:51.696Z,180
2017-11-18T06:51:51.973Z,192
2017-11-18T06:52:51.469Z,192
2017-11-18T06:53:52.007Z,196
2017-11-18T06:54:52.024Z,196
2017-11-18T06:55:51.646Z,192
2017-11-18T06:56:52.048Z,196
2017-11-18T06:57:51.813Z,220
2017-11-18T06:58:52.079Z,236
2017-11-18T06:59:52.092Z,236
2017-11-18T07:00:51.840Z,252
2017-11-18T07:01:52.106Z,260
2017-11-18T07:02:52.172Z,260
2017-11-18T07:03:51.879Z,292
2017-11-18T07:04:51.901Z,300
2017-11-18T07:05:51.925Z,304
2017-11-18T07:06:52.204Z,328
2017-11-18T07:07:51.936Z,344
2017-11-18T07:08:51.959Z,360
2017-11-18T07:09:51.968Z,364
2017-11-18T07:10:51.988Z,372
2017-11-18T07:11:52.253Z,400
2017-11-18T07:12:51.756Z,392
2017-11-18T07:13:52.287Z,424
2017-11-18T07:14:52.363Z,456
2017-11-18T07:15:52.051Z,448
2017-11-18T07:16:52.318Z,420
2017-11-18T07:17:52.080Z,400
2017-11-18T07:18:52.100Z,408
2017-11-18T07:19:52.414Z,428
2017-11-18T07:20:52.385Z,428
2017-11-18T07:21:51.619Z,448
2017-11-18T07:22:52.165Z,480
2017-11-18T07:23:52.415Z,496
2017-11-18T07:24:52.179Z,524
2017-11-18T07:25:51.935Z,540
2017-11-18T07:26:51.958Z,564
2017-11-18T07:27:52.245Z,592
2017-11-18T07:28:52.250Z,580
2017-11-18T07:29:52.251Z,628
2017-11-18T07:30:52.014Z,644
2017-11-18T07:31:52.573Z,648
2017-11-18T07:32:52.593Z,624
2017-11-18T07:33:52.578Z,620
2017-11-18T07:34:52.579Z,660
2017-11-18T07:35:52.610Z,760
2017-11-18T07:36:52.350Z,728
2017-11-18T07:37:52.415Z,736
2017-11-18T07:38:52.122Z,704
2017-11-18T07:39:52.655Z,704
2017-11-18T07:40:51.896Z,744
2017-11-18T07:41:52.436Z,708
2017-11-18T07:42:52.711Z,748
2017-11-18T07:43:52.457Z,760
2017-11-18T07:44:52.468Z,812
2017-11-18T07:45:52.481Z,880
2017-11-18T07:46:52.508Z,892
2017-11-18T07:47:52.519Z,840
2017-11-18T07:48:52.524Z,852
2017-11-18T07:49:52.280Z,872
2017-11-18T07:50:52.563Z,908
2017-11-18T07:51:52.707Z,920
2017-11-18T07:52:52.595Z,824
2017-11-18T07:53:52.615Z,724
2017-11-18T07:54:52.613Z,684
2017-11-18T07:55:52.627Z,664
2017-11-18T07:56:52.699Z,720
2017-11-18T07:57:52.930Z,760
2017-11-18T07:58:52.932Z,724
2017-11-18T07:59:52.951Z,692
2017-11-18T08:00:52.704Z,684
2017-11-18T08:01:52.985Z,708
2017-11-18T08:02:52.746Z,784
2017-11-18T08:03:52.763Z,900
2017-11-18T08:04:53.020Z,988
2017-11-18T08:05:53.029Z,1080
2017-11-18T08:06:53.049Z,1180
2017-11-18T08:07:53.075Z,1200
2017-11-18T08:08:52.820Z,1092
2017-11-18T08:09:52.843Z,988
2017-11-18T08:10:52.600Z,968
2017-11-18T08:11:52.910Z,980
2017-11-18T08:12:53.137Z,1000
2017-11-18T08:13:52.890Z,1096
2017-11-18T08:14:53.182Z,1092
2017-11-18T08:15:52.701Z,1132
2017-11-18T08:16:53.200Z,1144
2017-11-18T08:17:52.959Z,1084
2017-11-18T08:18:53.237Z,1132
2017-11-18T08:19:52.978Z,1076
2017-11-18T08:20:52.737Z,1084
2017-11-18T08:21:53.268Z,1004
2017-11-18T08:22:53.284Z,1012
2017-11-18T08:23:53.297Z,1096
2017-11-18T08:24:53.315Z,1284
2017-11-18T08:25:53.061Z,1276
2017-11-18T08:26:53.129Z,1232
2017-11-18T08:27:53.093Z,1196
2017-11-18T08:28:53.109Z,1240
2017-11-18T08:29:53.136Z,1216
2017-11-18T08:30:53.541Z,1176
2017-11-18T08:31:53.159Z,1296
2017-11-18T08:32:53.428Z,1352
2017-11-18T08:33:53.443Z,1348
2017-11-18T08:34:53.064Z,1316
2017-11-18T08:35:53.212Z,1300
2017-11-18T08:36:53.486Z,1320
2017-11-18T08:37:53.239Z,1552
2017-11-18T08:38:53.258Z,1584
2017-11-18T08:39:53.286Z,1516
2017-11-18T08:40:53.290Z,1304
2017-11-18T08:41:53.558Z,1220
2017-11-18T08:42:53.060Z,1340
2017-11-18T08:43:53.324Z,1592
2017-11-18T08:44:53.600Z,1660
2017-11-18T08:45:53.630Z,1664
2017-11-18T08:46:53.375Z,1540
2017-11-18T08:47:53.381Z,1504
2017-11-18T08:48:53.677Z,1676
2017-11-18T08:49:53.414Z,1840
2017-11-18T08:50:53.430Z,1604
2017-11-18T08:51:53.713Z,1428
2017-11-18T08:52:53.456Z,1448
2017-11-18T08:53:53.478Z,1380
2017-11-18T08:54:53.488Z,1248
2017-11-18T08:55:53.505Z,1212
2017-11-18T08:56:53.516Z,1432
2017-11-18T08:57:53.385Z,1600
2017-11-18T08:58:53.535Z,1636
2017-11-18T08:59:53.302Z,1764
2017-11-18T09:00:53.314Z,2036
2017-11-18T09:01:53.326Z,2480
2017-11-18T09:02:53.350Z,2604
2017-11-18T09:03:53.907Z,2660
2017-11-18T09:04:53.630Z,2512
2017-11-18T09:05:53.644Z,2320
2017-11-18T09:06:53.663Z,2156
2017-11-18T09:07:53.945Z,2036
2017-11-18T09:08:53.713Z,2152
2017-11-18T09:09:53.705Z,2324
2017-11-18T09:10:53.710Z,2252
2017-11-18T09:11:53.992Z,2212
2017-11-18T09:12:53.798Z,2140
2017-11-18T09:13:53.759Z,2044
2017-11-18T09:14:53.785Z,1968
2017-11-18T09:15:53.800Z,1920
2017-11-18T09:16:54.060Z,2116
2017-11-18T09:17:53.825Z,2264
2017-11-18T09:18:53.852Z,2140
2017-11-18T09:19:53.864Z,1900
2017-11-18T09:20:53.876Z,1720
2017-11-18T09:21:53.875Z,1696
2017-11-18T09:22:54.173Z,1820
2017-11-18T09:23:53.907Z,1884
2017-11-18T09:24:54.192Z,1948
2017-11-18T09:25:53.938Z,1944
2017-11-18T09:26:54.214Z,1868
2017-11-18T09:27:54.278Z,1876
2017-11-18T09:28:53.985Z,1860
2017-11-18T09:29:53.996Z,1776
2017-11-18T09:30:53.752Z,1708
2017-11-18T09:31:54.292Z,1736
2017-11-18T09:32:54.047Z,1840
2017-11-18T09:33:54.054Z,1764
2017-11-18T09:34:54.073Z,1516
2017-11-18T09:35:54.346Z,1304
2017-11-18T09:36:54.099Z,1344
2017-11-18T09:37:54.114Z,1548
2017-11-18T09:38:54.131Z,1900
2017-11-18T09:39:53.887Z,2032
2017-11-18T09:40:54.161Z,1864
2017-11-18T09:41:54.180Z,1740
2017-11-18T09:42:53.978Z,1768
2017-11-18T09:43:54.459Z,1804
2017-11-18T09:44:53.955Z,1844
2017-11-18T09:45:53.975Z,1816
2017-11-18T09:46:54.259Z,1708
2017-11-18T09:47:54.261Z,1696
2017-11-18T09:48:54.276Z,1724
2017-11-18T09:49:54.549Z,1760
2017-11-18T09:50:54.313Z,1808
2017-11-18T09:51:54.580Z,1732
2017-11-18T09:52:54.335Z,1588
2017-11-18T09:53:54.351Z,1408
2017-11-18T09:54:54.629Z,1384
2017-11-18T09:55:54.639Z,1348
2017-11-18T09:56:54.653Z,1328
2017-11-18T09:57:54.736Z,1292
2017-11-18T09:58:54.701Z,1264
2017-11-18T09:59:54.694Z,1236
2017-11-18T10:00:54.461Z,1228
2017-11-18T10:01:54.744Z,1244
2017-11-18T10:02:54.248Z,1212
2017-11-18T10:03:54.787Z,1148
2017-11-18T10:04:54.256Z,1156
2017-11-18T10:05:54.797Z,1152
2017-11-18T10:06:54.284Z,1132
2017-11-18T10:07:54.554Z,1148
2017-11-18T10:08:54.582Z,1168
2017-11-18T10:09:54.325Z,1188
2017-11-18T10:10:54.601Z,1264
2017-11-18T10:11:54.618Z,1272
2017-11-18T10:12:54.684Z,1280
2017-11-18T10:13:54.931Z,1192
2017-11-18T10:14:54.660Z,1208
2017-11-18T10:15:55.003Z,1176
2017-11-18T10:16:54.949Z,1100
2017-11-18T10:17:54.960Z,1036
2017-11-18T10:18:54.721Z,1092
2017-11-18T10:19:55.013Z,1012
2017-11-18T10:20:55.021Z,1000
2017-11-18T10:21:54.805Z,1036
2017-11-18T10:22:55.048Z,1052
2017-11-18T10:23:55.079Z,1148
2017-11-18T10:24:54.802Z,1140
2017-11-18T10:25:54.818Z,1076
2017-11-18T10:26:55.111Z,1076
2017-11-18T10:27:55.105Z,1096
2017-11-18T10:28:54.871Z,1084
2017-11-18T10:29:54.885Z,1136
2017-11-18T10:30:55.163Z,1132
2017-11-18T10:31:55.225Z,1072
2017-11-18T10:32:54.721Z,1060
2017-11-18T10:33:55.188Z,1180
2017-11-18T10:34:54.968Z,1212
2017-11-18T10:35:54.701Z,1136
2017-11-18T10:36:55.280Z,1116
2017-11-18T10:37:54.997Z,1176
2017-11-18T10:38:55.256Z,1240
2017-11-18T10:39:55.029Z,1140
2017-11-18T10:40:55.036Z,1108
2017-11-18T10:41:55.314Z,1148
2017-11-18T10:42:55.344Z,1296
2017-11-18T10:43:55.345Z,1312
2017-11-18T10:44:55.391Z,1276
2017-11-18T10:45:55.370Z,1312
2017-11-18T10:46:55.191Z,1248
2017-11-18T10:47:55.134Z,1368
2017-11-18T10:48:55.407Z,1332
2017-11-18T10:49:55.427Z,1400
2017-11-18T10:50:55.210Z,1436
2017-11-18T10:51:55.245Z,1432
2017-11-18T10:52:55.213Z,1436
2017-11-18T10:53:55.500Z,1640
2017-11-18T10:54:54.977Z,1924
2017-11-18T10:55:55.504Z,1876
2017-11-18T10:56:55.527Z,1988
2017-11-18T10:57:55.531Z,1992
2017-11-18T10:58:55.300Z,2272
2017-11-18T10:59:55.585Z,2424
2017-11-18T11:00:55.338Z,2348
2017-11-18T11:01:55.131Z,2588
2017-11-18T11:02:55.092Z,2512
2017-11-18T11:03:55.628Z,2992
2017-11-18T11:04:55.688Z,3220
2017-11-18T11:05:55.393Z,3428
2017-11-18T11:06:55.413Z,2972
2017-11-18T11:07:55.439Z,3576
2017-11-18T11:08:55.447Z,3540
2017-11-18T11:09:55.715Z,2932
2017-11-18T11:10:55.744Z,3188
2017-11-18T11:11:55.768Z,3140
2017-11-18T11:12:55.499Z,3236
2017-11-18T11:14:21.215Z,3116
2017-11-18T11:15:21.212Z,2788
2017-11-18T11:15:55.550Z,2508
2017-11-18T11:16:55.569Z,2124
2017-11-18T11:17:55.581Z,1728
2017-11-18T11:18:55.070Z,1492
2017-11-18T11:19:56.126Z,1540
2017-11-18T11:20:55.882Z,1528
2017-11-18T11:22:14.835Z,1632
2017-11-18T11:22:55.393Z,1824
2017-11-18T11:23:55.681Z,2132
2017-11-18T11:24:55.948Z,2444
2017-11-18T11:25:55.952Z,2616
2017-11-18T11:26:55.711Z,2608
2017-11-18T11:27:56.009Z,2908
2017-11-18T11:28:55.741Z,2812
2017-11-18T11:29:56.015Z,2696
2017-11-18T11:30:55.767Z,2604
2017-11-18T11:31:56.056Z,2392
2017-11-18T11:32:56.064Z,2256
2017-11-18T11:33:55.562Z,1980
2017-11-18T11:34:56.241Z,1752
2017-11-18T11:35:55.845Z,1572
2017-11-18T11:36:55.863Z,1644
2017-11-18T11:37:55.923Z,1784
2017-11-18T11:38:56.184Z,1608
2017-11-18T11:39:56.184Z,1352
2017-11-18T11:40:55.924Z,1252
2017-11-18T11:41:55.982Z,1320
2017-11-18T11:42:55.955Z,1800
2017-11-18T11:43:55.710Z,1796
2017-11-18T11:44:55.724Z,1472
2017-11-18T11:45:56.001Z,1388
2017-11-18T11:46:56.009Z,1408
2017-11-18T11:47:56.031Z,1672
2017-11-18T11:48:56.068Z,2036
2017-11-18T11:49:56.364Z,2128
2017-11-18T11:50:56.080Z,1760
2017-11-18T11:51:56.090Z,1652
2017-11-18T11:52:56.372Z,1700
2017-11-18T11:53:56.387Z,1596
2017-11-18T11:54:56.399Z,1560
2017-11-18T11:55:56.415Z,1628
2017-11-18T11:56:56.204Z,1976
2017-11-18T11:57:55.934Z,2412
2017-11-18T11:58:55.936Z,2536
2017-11-18T11:59:55.956Z,2636
2017-11-18T12:00:56.505Z,2908
2017-11-18T12:01:56.543Z,2808
2017-11-18T12:02:56.275Z,2572
2017-11-18T12:03:56.029Z,2300
2017-11-18T12:04:56.344Z,2128
2017-11-18T12:05:56.046Z,2112
2017-11-18T12:06:56.586Z,2100
2017-11-18T12:07:56.077Z,2536
2017-11-18T12:08:56.353Z,2784
2017-11-18T12:09:56.695Z,2864
2017-11-18T12:10:56.649Z,2952
2017-11-18T12:11:56.425Z,3040
2017-11-18T12:12:56.415Z,2984
2017-11-18T12:13:56.691Z,2916
2017-11-18T12:14:56.441Z,3048
2017-11-18T12:15:56.734Z,2904
2017-11-18T12:16:56.732Z,2804
2017-11-18T12:17:56.753Z,2448
2017-11-18T12:18:56.764Z,2176
2017-11-18T12:19:56.588Z,1984
2017-11-18T12:20:56.995Z,1912
2017-11-18T12:21:56.301Z,1820
2017-11-18T12:22:56.579Z,1848
2017-11-18T12:23:56.842Z,1976
2017-11-18T12:24:56.599Z,2156
2017-11-18T12:25:56.622Z,2164
2017-11-18T12:26:56.378Z,2408
2017-11-18T12:27:56.651Z,3132
2017-11-18T12:28:56.925Z,3868
2017-11-18T12:29:56.678Z,4056
2017-11-18T12:30:56.958Z,3868
2017-11-18T12:31:56.966Z,3848
2017-11-18T12:32:56.728Z,3440
2017-11-18T12:33:56.785Z,3204
2017-11-18T12:34:56.913Z,3140
2017-11-18T12:35:56.515Z,3108
2017-11-18T12:36:56.785Z,3896
2017-11-18T12:37:57.062Z,5928
2017-11-18T12:38:56.833Z,5840
2017-11-18T12:39:56.831Z,5624
2017-11-18T12:40:56.590Z,5536
2017-11-18T12:41:56.889Z,4872
2017-11-18T12:42:56.888Z,3864
2017-11-18T12:43:57.169Z,3436
2017-11-18T12:44:56.675Z,3092
2017-11-18T12:45:56.947Z,2864
2017-11-18T12:46:56.693Z,3164
2017-11-18T12:47:56.964Z,2980
2017-11-18T12:48:57.239Z,2844
2017-11-18T12:49:57.343Z,3096
2017-11-18T12:50:57.278Z,2852
2017-11-18T12:51:57.030Z,2220
2017-11-18T12:52:57.048Z,2240
2017-11-18T12:53:57.320Z,2544
2017-11-18T12:54:57.342Z,2952
2017-11-18T12:55:57.097Z,3004
2017-11-18T12:56:57.109Z,2620
2017-11-18T12:57:57.126Z,2276
2017-11-18T12:58:57.404Z,2476
2017-11-18T12:59:57.197Z,2620
2017-11-18T13:00:57.180Z,2308
2017-11-18T13:01:57.191Z,2112
2017-11-18T13:02:56.947Z,2020
2017-11-18T13:03:57.493Z,1944
2017-11-18T13:04:57.042Z,1916
2017-11-18T13:05:57.000Z,1856
2017-11-18T13:06:57.285Z,1796
2017-11-18T13:07:57.034Z,1704
2017-11-18T13:08:57.557Z,1512
2017-11-18T13:09:57.063Z,1392
2017-11-18T13:10:57.597Z,1328
2017-11-18T13:11:57.369Z,1252
2017-11-18T13:12:57.634Z,1136
2017-11-18T13:13:57.384Z,1160
2017-11-18T13:14:57.433Z,1324
2017-11-18T13:15:57.446Z,1384
2017-11-18T13:16:57.428Z,1456
2017-11-18T13:17:57.730Z,1500
2017-11-18T13:18:57.728Z,1704
2017-11-18T13:19:57.786Z,1888
2017-11-18T13:20:57.495Z,1848
2017-11-18T13:21:57.259Z,1804
2017-11-18T13:22:57.530Z,1728
2017-11-18T13:23:57.551Z,1640
2017-11-18T13:24:57.812Z,1548
2017-11-18T13:25:57.578Z,1472
2017-11-18T13:26:57.334Z,1408
2017-11-18T13:27:57.352Z,1364
2017-11-18T13:28:57.379Z,1316
2017-11-18T13:29:57.645Z,1240
2017-11-18T13:30:57.915Z,1152
2017-11-18T13:31:57.930Z,1056
2017-11-18T13:32:57.427Z,976
2017-11-18T13:33:57.697Z,1036
2017-11-18T13:34:58.024Z,1080
2017-11-18T13:35:57.993Z,1064
2017-11-18T13:36:57.503Z,1096
2017-11-18T13:37:57.769Z,1180
2017-11-18T13:38:57.821Z,1160
2017-11-18T13:39:58.075Z,1004
2017-11-18T13:40:58.079Z,848
2017-11-18T13:41:58.096Z,872
2017-11-18T13:42:57.847Z,876
2017-11-18T13:43:57.608Z,848
2017-11-18T13:44:57.880Z,816
2017-11-18T13:45:57.897Z,756
2017-11-18T13:46:58.169Z,684
2017-11-18T13:47:57.409Z,632
2017-11-18T13:48:58.199Z,604
2017-11-18T13:49:57.749Z,568
2017-11-18T13:50:57.997Z,552
2017-11-18T13:51:58.277Z,520
2017-11-18T13:52:58.005Z,512
2017-11-18T13:53:58.017Z,484
2017-11-18T13:54:57.799Z,460
2017-11-18T13:55:58.056Z,472
2017-11-18T13:56:58.081Z,520
2017-11-18T13:57:57.822Z,556
2017-11-18T13:58:58.094Z,552
2017-11-18T13:59:58.118Z,580
2017-11-18T14:00:58.394Z,540
2017-11-18T14:01:58.432Z,408